• Join FlightAware (Why Join?)
  • Login
  • US Flag 
10:45AM EDT


 

Airport Tracker/Info


-or-


 

Live Flight TrackerFlight Track Log ✈ UAL1035 ✈ 24-Sep-2013 ✈ KIAH - SEQM / UIO

Flight Track Log - Related Links

Times and Time Zones

All times are in EDT time to prevent confusion due to time zone crossing. See the UAL1035 flight status page for this flight to view local times or setup timezone preferences in your user account.

Time Position Orientation Groundspeed Altitude Reporting Facility
EDT Latitude Longitude Course Direction KTS MPH feet Rate Location/Type
07:03PM 29.9547 -95.3372 156° South 178 205 900  Level Houston Center
07:04PM 29.9094 -95.2775 131° Southeast 245 282 3,300 1,920 Climbing Houston Center
07:05PM 29.8972 -95.2603 129° Southeast 225 259 3,900 540 Climbing Houston Center
07:06PM 29.6634 -95.1186 150° Southeast  Level Estimated
07:06PM 29.8472 -95.1958 132° Southeast 289 333 4,000  Level Houston Center
07:06PM 29.8442 -95.1922 134° Southeast 278 320 4,100 2,160 Climbing Houston Center
07:07PM 29.5563 -95.0447 147° Southeast  Level Estimated
07:07PM 29.7892 -95.1247 133° Southeast 284 327 6,800  Level Houston Center
07:08PM 29.4492 -94.9709 156° South  Level Estimated
07:08PM 29.7167 -95.0742 149° Southeast 303 349 9,900  Level Houston Center
07:09PM 29.6283 -95.0331 158° South 335 386 11,700 1,920 Climbing Houston Center
07:10PM 29.5325 -94.9881 158° South 361 415 13,900 2,220 Climbing Houston Center
07:11PM 29.4111 -94.9319 158° South 382 440 16,400 2,280 Climbing Houston Center
07:12PM 29.3072 -94.8844 158° South 395 455 18,700 1,980 Climbing Houston Center
07:13PM 29.2047 -94.8239 153° Southeast 416 479 20,500 1,620 Climbing Houston Center
07:14PM 29.1031 -94.7544 149° Southeast 423 487 22,100 1,620 Climbing Houston Center
07:15PM 28.9975 -94.6839 150° Southeast 437 503 23,900 1,620 Climbing Houston Center
07:16PM 28.8889 -94.6092 149° Southeast 451 519 25,500 1,440 Climbing Houston Center
07:17PM 28.7786 -94.5350 149° Southeast 459 528 27,000 1,500 Climbing Houston Center
07:18PM 28.6436 -94.4458 150° Southeast 467 537 28,600 1,500 Climbing Houston Center
07:19PM 28.5286 -94.3675 149° Southeast 478 550 30,100 1,500 Climbing Houston Center
07:20PM 28.4153 -94.2914 149° Southeast 474 545 31,700 1,440 Climbing Houston Center
07:21PM 28.3036 -94.2175 150° Southeast 467 537 33,100 1,380 Climbing Houston Center
07:22PM 28.1922 -94.1428 149° Southeast 465 535 34,600 900 Climbing Houston Center
07:23PM 28.0903 -94.0553 143° Southeast 459 528 35,000 180 Climbing Houston Center
07:24PM 27.9742 -93.9411 139° Southeast 460 529 35,000  Level Houston Center
07:25PM 27.8756 -93.8486 140° Southeast 461 531 35,000  Level Houston Center
07:26PM 27.7781 -93.7561 140° Southeast 458 527 35,000  Level Houston Center
07:27PM 27.6808 -93.6631 140° Southeast 457 526 35,000  Level Houston Center
07:28PM 27.5819 -93.5714 141° Southeast 460 529 35,000  Level Houston Center
07:29PM 27.4742 -93.4697 140° Southeast 460 529 35,000  Level Houston Center
07:30PM 27.3867 -93.3869 140° Southeast 459 528 35,000  Level Houston Center
07:32PM 27.2697 -93.2744 139° Southeast 459 528 35,000  Level Houston Center
07:34PM 27.0804 -93.1012 139° Southeast  Level FlightAware Approximate
07:35PM 26.9622 -92.9914 139° Southeast 462 532 35,000  Level Houston Center
07:36PM 26.8631 -92.8992 140° Southeast 462 532 35,000  Level Houston Center
07:37PM 26.7642 -92.8094 141° Southeast 460 529 35,000  Level Houston Center
07:39PM 26.5701 -92.6761 148° Southeast  Level FlightAware Approximate
07:46PM 25.8245 -92.1942 149° Southeast  Level FlightAware Approximate
07:47PM 25.7186 -92.1245 149° Southeast  Level FlightAware Approximate
07:48PM 25.6126 -92.0550 149° Southeast  Level FlightAware Approximate
07:49PM 25.5066 -91.9856 149° Southeast  Level FlightAware Approximate
07:50PM 25.4006 -91.9163 149° Southeast  Level FlightAware Approximate
07:51PM 25.2945 -91.8471 149° Southeast  Level FlightAware Approximate
07:52PM 25.1884 -91.7780 149° Southeast  Level FlightAware Approximate
07:53PM 25.0823 -91.7091 150° Southeast  Level FlightAware Approximate
07:54PM 24.9761 -91.6403 150° Southeast  Level FlightAware Approximate
07:55PM 24.8699 -91.5716 150° Southeast  Level FlightAware Approximate
07:56PM 24.7637 -91.5030 150° Southeast  Level FlightAware Approximate
07:57PM 24.6574 -91.4345 150° Southeast  Level FlightAware Approximate
07:58PM 24.5511 -91.3662 150° Southeast  Level FlightAware Approximate
07:59PM 24.4415 -91.3052 156° South  Level FlightAware Approximate
08:00PM 24.3287 -91.2509 156° South  Level FlightAware Approximate
08:01PM 24.2159 -91.1968 156° South  Level FlightAware Approximate
08:02PM 24.1031 -91.1428 156° South  Level FlightAware Approximate
08:03PM 23.9922 -91.0842 154° Southeast  Level FlightAware Approximate
08:04PM 23.8817 -91.0247 154° Southeast  Level FlightAware Approximate
08:05PM 23.7691 -90.9703 156° South  Level FlightAware Approximate
08:06PM 23.6562 -90.9167 157° South  Level FlightAware Approximate
08:07PM 23.5433 -90.8632 157° South  Level FlightAware Approximate
08:08PM 23.4303 -90.8098 157° South  Level FlightAware Approximate
08:09PM 23.3173 -90.7564 157° South  Level FlightAware Approximate
08:10PM 23.2043 -90.7032 157° South  Level FlightAware Approximate
08:11PM 23.0913 -90.6501 157° South  Level FlightAware Approximate
08:12PM 22.9783 -90.5970 157° South  Level FlightAware Approximate
08:13PM 22.8652 -90.5441 157° South  Level FlightAware Approximate
08:14PM 22.7522 -90.4912 157° South  Level FlightAware Approximate
08:15PM 22.6391 -90.4384 157° South  Level FlightAware Approximate
08:16PM 22.5260 -90.3857 157° South  Level FlightAware Approximate
08:17PM 22.4129 -90.3331 157° South  Level FlightAware Approximate
08:18PM 22.2997 -90.2805 157° South  Level FlightAware Approximate
08:19PM 22.1866 -90.2281 157° South  Level FlightAware Approximate
08:20PM 22.0734 -90.1757 157° South  Level FlightAware Approximate
08:21PM 21.9603 -90.1234 157° South  Level FlightAware Approximate
08:22PM 21.8470 -90.0713 157° South  Level FlightAware Approximate
08:23PM 21.7338 -90.0191 157° South  Level FlightAware Approximate
08:24PM 21.6206 -89.9671 157° South  Level FlightAware Approximate
08:25PM 21.5075 -89.9148 157° South  Level FlightAware Approximate
08:26PM 21.3944 -89.8625 157° South  Level FlightAware Approximate
08:27PM 21.2813 -89.8102 157° South  Level FlightAware Approximate
08:28PM 21.1682 -89.7581 157° South  Level FlightAware Approximate
08:29PM 21.0551 -89.7060 157° South  Level FlightAware Approximate
08:30PM 20.9419 -89.6539 157° South  Level FlightAware Approximate
08:31PM 20.8272 -89.6060 159° South  Level FlightAware Approximate
08:32PM 20.7124 -89.5584 159° South  Level FlightAware Approximate
08:33PM 20.5976 -89.5109 159° South  Level FlightAware Approximate
08:34PM 20.4828 -89.4635 159° South  Level FlightAware Approximate
08:35PM 20.3666 -89.4202 161° South  Level FlightAware Approximate
08:36PM 20.2498 -89.3785 161° South  Level FlightAware Approximate
08:37PM 20.1343 -89.3333 159° South  Level FlightAware Approximate
08:38PM 20.0191 -89.2868 159° South  Level FlightAware Approximate
08:39PM 19.9040 -89.2403 159° South  Level FlightAware Approximate
08:40PM 19.7889 -89.1940 159° South  Level FlightAware Approximate
08:41PM 19.6737 -89.1477 159° South  Level FlightAware Approximate
08:42PM 19.5586 -89.1014 159° South  Level FlightAware Approximate
08:43PM 19.4434 -89.0552 159° South  Level FlightAware Approximate
08:44PM 19.3282 -89.0091 159° South  Level FlightAware Approximate
08:45PM 19.2130 -88.9631 159° South  Level FlightAware Approximate
08:46PM 19.0978 -88.9171 159° South  Level FlightAware Approximate
08:47PM 18.9826 -88.8711 159° South  Level FlightAware Approximate
08:48PM 18.8674 -88.8253 159° South  Level FlightAware Approximate
08:49PM 18.7521 -88.7795 159° South  Level FlightAware Approximate
08:50PM 18.6369 -88.7337 159° South  Level FlightAware Approximate
08:51PM 18.5216 -88.6880 159° South  Level FlightAware Approximate
08:52PM 18.4064 -88.6424 159° South  Level FlightAware Approximate
08:53PM 18.2949 -88.5876 154° Southeast  Level FlightAware Approximate
08:54PM 18.1843 -88.5306 154° Southeast  Level FlightAware Approximate
08:55PM 18.0737 -88.4737 154° Southeast  Level FlightAware Approximate
08:56PM 17.9631 -88.4168 154° Southeast  Level FlightAware Approximate
08:57PM 17.8525 -88.3600 154° Southeast  Level FlightAware Approximate
08:58PM 17.7418 -88.3033 154° Southeast  Level FlightAware Approximate
08:59PM 17.6312 -88.2466 154° Southeast  Level FlightAware Approximate
09:00PM 17.5205 -88.1900 154° Southeast  Level FlightAware Approximate
09:01PM 17.4098 -88.1335 154° Southeast  Level FlightAware Approximate
09:02PM 17.2991 -88.0770 154° Southeast  Level FlightAware Approximate
09:03PM 17.1884 -88.0206 154° Southeast  Level FlightAware Approximate
09:04PM 17.0777 -87.9643 154° Southeast  Level FlightAware Approximate
09:05PM 16.9669 -87.9080 154° Southeast  Level FlightAware Approximate
09:06PM 16.8563 -87.8516 154° Southeast  Level FlightAware Approximate
09:07PM 16.7486 -87.7968 154° Southeast  Level FlightAware Approximate
09:08PM 16.6410 -87.7421 154° Southeast  Level FlightAware Approximate
09:09PM 16.5334 -87.6875 154° Southeast  Level FlightAware Approximate
09:10PM 16.4258 -87.6329 154° Southeast  Level FlightAware Approximate
09:11PM 16.3181 -87.5785 154° Southeast  Level FlightAware Approximate
09:12PM 16.2104 -87.5240 154° Southeast  Level FlightAware Approximate
09:13PM 16.1027 -87.4696 154° Southeast  Level FlightAware Approximate
09:14PM 15.9950 -87.4153 154° Southeast  Level FlightAware Approximate
09:15PM 15.8873 -87.3610 154° Southeast  Level FlightAware Approximate
09:16PM 15.7796 -87.3068 154° Southeast  Level FlightAware Approximate
09:17PM 15.6718 -87.2527 154° Southeast  Level FlightAware Approximate
09:18PM 15.5640 -87.1987 154° Southeast  Level FlightAware Approximate
09:19PM 15.4562 -87.1448 154° Southeast  Level FlightAware Approximate
09:20PM 15.3471 -87.0937 156° South  Level FlightAware Approximate
09:21PM 15.2377 -87.0434 156° South  Level FlightAware Approximate
09:22PM 15.1283 -86.9931 156° South  Level FlightAware Approximate
09:23PM 15.0188 -86.9430 156° South  Level FlightAware Approximate
09:24PM 14.9094 -86.8928 156° South  Level FlightAware Approximate
09:25PM 14.7999 -86.8428 156° South  Level FlightAware Approximate
09:26PM 14.6904 -86.7927 156° South  Level FlightAware Approximate
09:27PM 14.5813 -86.7420 155° Southeast  Level FlightAware Approximate
09:28PM 14.4724 -86.6905 155° Southeast  Level FlightAware Approximate
09:29PM 14.3636 -86.6390 155° Southeast  Level FlightAware Approximate
09:30PM 14.2548 -86.5876 155° Southeast  Level FlightAware Approximate
09:31PM 14.1459 -86.5363 155° Southeast  Level FlightAware Approximate
09:32PM 14.0371 -86.4849 155° Southeast  Level FlightAware Approximate
09:33PM 13.9282 -86.4337 155° Southeast  Level FlightAware Approximate
09:34PM 13.8193 -86.3825 155° Southeast  Level FlightAware Approximate
09:35PM 13.7104 -86.3313 155° Southeast  Level FlightAware Approximate
09:36PM 13.6015 -86.2802 155° Southeast  Level FlightAware Approximate
09:37PM 13.4926 -86.2291 155° Southeast  Level FlightAware Approximate
09:38PM 13.3837 -86.1781 156° South  Level FlightAware Approximate
09:39PM 13.2748 -86.1272 156° South  Level FlightAware Approximate
09:40PM 13.1658 -86.0762 156° South  Level FlightAware Approximate
09:41PM 13.0569 -86.0253 156° South  Level FlightAware Approximate
09:42PM 12.9479 -85.9745 156° South  Level FlightAware Approximate
09:43PM 12.8390 -85.9237 156° South  Level FlightAware Approximate
09:44PM 12.7300 -85.8730 156° South  Level FlightAware Approximate
09:45PM 12.6210 -85.8223 156° South  Level FlightAware Approximate
09:46PM 12.5120 -85.7716 156° South  Level FlightAware Approximate
09:47PM 12.4030 -85.7210 156° South  Level FlightAware Approximate
09:48PM 12.2940 -85.6704 156° South  Level FlightAware Approximate
09:49PM 12.1847 -85.6204 156° South  Level FlightAware Approximate
09:50PM 12.0753 -85.5708 156° South  Level FlightAware Approximate
09:51PM 11.9658 -85.5212 156° South  Level FlightAware Approximate
09:52PM 11.8564 -85.4717 156° South  Level FlightAware Approximate
09:53PM 11.7469 -85.4222 156° South  Level FlightAware Approximate
09:54PM 11.6375 -85.3728 156° South  Level FlightAware Approximate
09:55PM 11.5282 -85.3230 155° Southeast  Level FlightAware Approximate
09:56PM 11.4198 -85.2713 155° Southeast  Level FlightAware Approximate
09:57PM 11.3113 -85.2197 155° Southeast  Level FlightAware Approximate
09:58PM 11.2028 -85.1681 155° Southeast  Level FlightAware Approximate
09:59PM 11.0943 -85.1166 155° Southeast  Level FlightAware Approximate
10:00PM 10.9858 -85.0651 155° Southeast  Level FlightAware Approximate
10:01PM 10.8773 -85.0136 155° Southeast  Level FlightAware Approximate
10:02PM 10.7688 -84.9622 155° Southeast  Level FlightAware Approximate
10:03PM 10.6603 -84.9108 155° Southeast  Level FlightAware Approximate
10:04PM 10.5518 -84.8595 155° Southeast  Level FlightAware Approximate
10:05PM 10.4432 -84.8082 155° Southeast  Level FlightAware Approximate
10:06PM 10.3347 -84.7569 155° Southeast  Level FlightAware Approximate
10:07PM 10.2261 -84.7056 155° Southeast  Level FlightAware Approximate
10:08PM 10.1175 -84.6544 155° Southeast  Level FlightAware Approximate
10:09PM 10.0090 -84.6032 155° Southeast  Level FlightAware Approximate
10:10PM 9.9004 -84.5521 155° Southeast  Level FlightAware Approximate
10:11PM 9.7918 -84.5010 155° Southeast  Level FlightAware Approximate
10:12PM 9.6832 -84.4500 155° Southeast  Level FlightAware Approximate
10:13PM 9.5749 -84.3984 155° Southeast  Level FlightAware Approximate
10:14PM 9.4665 -84.3469 155° Southeast  Level FlightAware Approximate
10:15PM 9.3581 -84.2954 155° Southeast  Level FlightAware Approximate
10:16PM 9.2497 -84.2439 155° Southeast  Level FlightAware Approximate
10:17PM 9.1413 -84.1925 155° Southeast  Level FlightAware Approximate
10:18PM 9.0330 -84.1411 155° Southeast  Level FlightAware Approximate
10:19PM 8.9245 -84.0897 155° Southeast  Level FlightAware Approximate
10:20PM 8.8161 -84.0384 155° Southeast  Level FlightAware Approximate
10:21PM 8.7077 -83.9871 155° Southeast  Level FlightAware Approximate
10:22PM 8.5993 -83.9358 155° Southeast  Level FlightAware Approximate
10:23PM 8.4909 -83.8846 155° Southeast  Level FlightAware Approximate
10:24PM 8.3824 -83.8334 155° Southeast  Level FlightAware Approximate
10:25PM 8.2740 -83.7822 155° Southeast  Level FlightAware Approximate
10:26PM 8.1655 -83.7310 155° Southeast  Level FlightAware Approximate
10:27PM 8.0570 -83.6799 155° Southeast  Level FlightAware Approximate
10:28PM 7.9486 -83.6288 155° Southeast  Level FlightAware Approximate
10:29PM 7.8401 -83.5777 155° Southeast  Level FlightAware Approximate
10:30PM 7.7311 -83.5277 156° South  Level FlightAware Approximate
10:31PM 7.6220 -83.4781 156° South  Level FlightAware Approximate
10:32PM 7.5129 -83.4285 156° South  Level FlightAware Approximate
10:33PM 7.4037 -83.3790 156° South  Level FlightAware Approximate
10:34PM 7.2946 -83.3294 156° South  Level FlightAware Approximate
10:35PM 7.1855 -83.2799 156° South  Level FlightAware Approximate
10:36PM 7.0763 -83.2304 156° South  Level FlightAware Approximate
10:37PM 6.9672 -83.1809 156° South  Level FlightAware Approximate
10:38PM 6.8580 -83.1314 156° South  Level FlightAware Approximate
10:39PM 6.7488 -83.0820 156° South  Level FlightAware Approximate
10:40PM 6.6397 -83.0326 156° South  Level FlightAware Approximate
10:41PM 6.5305 -82.9832 156° South  Level FlightAware Approximate
10:42PM 6.4213 -82.9338 156° South  Level FlightAware Approximate
10:43PM 6.3185 -82.8729 145° Southeast  Level FlightAware Approximate
10:44PM 6.2203 -82.8041 145° Southeast  Level FlightAware Approximate
10:45PM 6.1221 -82.7353 145° Southeast  Level FlightAware Approximate
10:46PM 6.0245 -82.6670 145° Southeast  Level FlightAware Approximate
10:47PM 5.9270 -82.5987 145° Southeast  Level FlightAware Approximate
10:48PM 5.8294 -82.5305 145° Southeast  Level FlightAware Approximate
10:49PM 5.7318 -82.4622 145° Southeast  Level FlightAware Approximate
10:50PM 5.6340 -82.3944 146° Southeast  Level FlightAware Approximate
10:51PM 5.5356 -82.3274 146° Southeast  Level FlightAware Approximate
10:52PM 5.4372 -82.2605 146° Southeast  Level FlightAware Approximate
10:53PM 5.3387 -82.1936 146° Southeast  Level FlightAware Approximate
10:54PM 5.2403 -82.1266 146° Southeast  Level FlightAware Approximate
10:55PM 5.1419 -82.0598 146° Southeast  Level FlightAware Approximate
10:56PM 5.0434 -81.9929 146° Southeast  Level FlightAware Approximate
10:57PM 4.9450 -81.9260 146° Southeast  Level FlightAware Approximate
10:58PM 4.8465 -81.8592 146° Southeast  Level FlightAware Approximate
10:59PM 4.7480 -81.7924 146° Southeast  Level FlightAware Approximate
11:00PM 4.6495 -81.7256 146° Southeast  Level FlightAware Approximate
11:01PM 4.5511 -81.6588 146° Southeast  Level FlightAware Approximate
11:02PM 4.4526 -81.5921 146° Southeast  Level FlightAware Approximate
11:03PM 4.3541 -81.5253 146° Southeast  Level FlightAware Approximate
11:04PM 4.2562 -81.4577 145° Southeast  Level FlightAware Approximate
11:05PM 4.1588 -81.3894 145° Southeast  Level FlightAware Approximate
11:06PM 4.0613 -81.3212 145° Southeast  Level FlightAware Approximate
11:07PM 3.9639 -81.2529 145° Southeast  Level FlightAware Approximate
11:08PM 3.8664 -81.1847 145° Southeast  Level FlightAware Approximate
11:09PM 3.7690 -81.1165 145° Southeast  Level FlightAware Approximate
11:10PM 3.6715 -81.0484 145° Southeast  Level FlightAware Approximate
11:11PM 3.5736 -80.9808 146° Southeast  Level FlightAware Approximate
11:12PM 3.4756 -80.9135 146° Southeast  Level FlightAware Approximate
11:13PM 3.3776 -80.8461 146° Southeast  Level FlightAware Approximate
11:14PM 3.2796 -80.7788 146° Southeast  Level FlightAware Approximate
11:15PM 3.1815 -80.7114 146° Southeast  Level FlightAware Approximate
11:16PM 3.0835 -80.6441 146° Southeast  Level FlightAware Approximate
11:17PM 2.9854 -80.5768 146° Southeast  Level FlightAware Approximate
11:18PM 2.8874 -80.5096 146° Southeast  Level FlightAware Approximate
11:19PM 2.7894 -80.4423 146° Southeast  Level FlightAware Approximate
11:20PM 2.6913 -80.3750 146° Southeast  Level FlightAware Approximate
11:21PM 2.5932 -80.3078 146° Southeast  Level FlightAware Approximate
11:22PM 2.4952 -80.2405 146° Southeast  Level FlightAware Approximate
11:23PM 2.3971 -80.1733 146° Southeast  Level FlightAware Approximate
11:24PM 2.2991 -80.1061 146° Southeast  Level FlightAware Approximate
11:25PM 2.2010 -80.0389 146° Southeast  Level FlightAware Approximate
11:26PM 2.1029 -79.9716 146° Southeast  Level FlightAware Approximate
11:27PM 2.0048 -79.9044 146° Southeast  Level FlightAware Approximate
11:28PM 1.9067 -79.8373 146° Southeast  Level FlightAware Approximate
11:29PM 1.8087 -79.7701 146° Southeast  Level FlightAware Approximate
11:30PM 1.7106 -79.7029 146° Southeast  Level FlightAware Approximate
11:31PM 1.6125 -79.6357 146° Southeast  Level FlightAware Approximate
11:32PM 1.5144 -79.5686 146° Southeast  Level FlightAware Approximate
11:33PM 1.4163 -79.5015 146° Southeast  Level FlightAware Approximate
11:34PM 1.3182 -79.4344 146° Southeast  Level FlightAware Approximate
11:35PM 1.2199 -79.3688 146° Southeast  Level FlightAware Approximate
11:36PM 1.1210 -79.3029 146° Southeast  Level FlightAware Approximate
11:37PM 1.0226 -79.2362 145° Southeast  Level FlightAware Approximate
11:38PM 0.9249 -79.1685 145° Southeast  Level FlightAware Approximate
11:39PM 0.8267 -79.1015 147° Southeast  Level FlightAware Approximate
11:40PM 0.7272 -79.0365 147° Southeast  Level FlightAware Approximate
11:41PM 0.6276 -78.9716 147° Southeast  Level FlightAware Approximate
11:42PM 0.5280 -78.9067 147° Southeast  Level FlightAware Approximate
11:43PM 0.4302 -78.8393 143° Southeast  Level FlightAware Approximate
11:44PM 0.3351 -78.7680 143° Southeast  Level FlightAware Approximate
11:45PM 0.2349 -78.7040 148° Southeast  Level FlightAware Approximate
11:46PM 0.1354 -78.6391 143° Southeast  Level FlightAware Approximate
11:47PM 0.0403 -78.5677 143° Southeast  Level FlightAware Approximate
11:48PM -0.0416 -78.4834 117° Southeast  Level FlightAware Approximate
11:49PM -0.1411 -78.4882 112° Southeast  Level Estimated
11:50PM -0.1411 -78.4882 112° Southeast  Level Estimated
11:51PM -0.1411 -78.4882 112° Southeast  Level Estimated
11:52PM -0.1411 -78.4882 112° Southeast  Level Estimated
11:53PM -0.1411 -78.4882 112° Southeast  Level Estimated
11:54PM -0.1411 -78.4882 112° Southeast  Level Estimated
11:55PM -0.1411 -78.4882 112° Southeast  Level Estimated
11:56PM -0.1411 -78.4882 112° Southeast  Level Estimated
11:57PM -0.1411 -78.4882 112° Southeast  Level Estimated
11:58PM -0.1411 -78.4882 112° Southeast  Level Estimated